Terminal Aerodrome Forecast
Issued by NWS Newport/Morehead City, NC

Home | Current Version | Previous Version | Graphics & Text | Print | Product List | Glossary On
Versions: 1 2 3 4 5 6 7 8 9 10 11 12
703
FTUS42 KMHX 081138
TAFEWN
TAF
KEWN 081138Z 0812/0912 25004KT P6SM SCT025 BKN035
     FM081300 27007KT P6SM OVC020
     FM081900 30010G15KT P6SM BKN040
     FM090000 32008KT P6SM SCT200
     FM090600 33007KT P6SM SKC=

USA.gov is the U.S. government's official web portal to all federal, state and local government web resources and services.